Time;durP1;ratioP1;P1;durP2;ratioP2;P2;SDS_P1;SDS_P2;PMS_P1;PMS_P2;Temp;Humidity;BMP_temperature;BMP_pressure;BME280_temperature;BME280_humidity;BME280_pressure;Samples;Min_cycle;Max_cycle;Signal;HPM_P1;HPM_P2
2022/07/28 00:01:34;;;;;;;3.70;1.33;;;16.50;99.90;;;;;;5011231;28;20308;-68
2022/07/28 00:04:01;;;;;;;5.10;1.47;;;16.50;99.90;;;;;;5010880;28;20206;-68
2022/07/28 00:06:28;;;;;;;4.37;1.80;;;16.50;99.90;;;;;;5010867;28;20224;-69
2022/07/28 00:08:54;;;;;;;2.77;1.63;;;16.40;99.90;;;;;;5010848;28;20205;-69
2022/07/28 00:11:22;;;;;;;3.60;1.50;;;16.40;99.90;;;;;;5010683;28;20206;-69
2022/07/28 00:13:49;;;;;;;2.07;1.50;;;16.40;99.90;;;;;;5010471;28;20677;-69
2022/07/28 00:16:16;;;;;;;5.00;1.47;;;16.40;99.90;;;;;;5010371;28;20221;-69
2022/07/28 00:18:44;;;;;;;1.57;1.47;;;16.30;99.90;;;;;;5027042;28;20204;-69
2022/07/28 00:21:11;;;;;;;3.97;1.70;;;16.30;99.90;;;;;;5030254;28;20205;-69
2022/07/28 00:23:37;;;;;;;3.90;1.50;;;16.30;99.90;;;;;;5030211;28;20227;-69
2022/07/28 00:26:08;;;;;;;3.57;1.53;;;16.30;99.90;;;;;;5029834;28;20210;-69
2022/07/28 00:28:37;;;;;;;3.57;1.70;;;16.20;99.90;;;;;;5029201;28;20211;-69
2022/07/28 00:31:07;;;;;;;3.50;1.80;;;16.20;99.90;;;;;;5029703;28;20209;-69
2022/07/28 00:33:34;;;;;;;3.57;1.70;;;16.20;99.90;;;;;;5015096;28;20212;-69
2022/07/28 00:36:01;;;;;;;3.00;1.63;;;16.10;99.90;;;;;;5010114;28;20229;-69
2022/07/28 00:38:30;;;;;;;1.80;1.70;;;16.10;99.90;;;;;;5010316;28;20280;-69
2022/07/28 00:41:11;;;;;;;2.90;1.33;;;16.10;99.90;;;;;;5009481;28;20217;-69
2022/07/28 00:43:40;;;;;;;4.07;1.53;;;16.10;99.90;;;;;;5024272;28;20542;-69
2022/07/28 00:46:08;;;;;;;4.47;1.60;;;16.20;99.90;;;;;;5029873;28;20239;-69
2022/07/28 00:48:37;;;;;;;1.50;1.40;;;16.10;99.90;;;;;;5029789;28;20205;-69
2022/07/28 00:51:08;;;;;;;3.03;1.70;;;16.00;99.90;;;;;;5029377;28;20809;-69
2022/07/28 00:53:36;;;;;;;2.97;1.87;;;16.00;99.90;;;;;;5023752;28;20237;-69
2022/07/28 00:56:05;;;;;;;2.03;1.60;;;16.10;99.90;;;;;;5028948;28;20257;-69
2022/07/28 00:58:32;;;;;;;6.43;1.70;;;16.00;99.90;;;;;;5029764;28;20197;-69
2022/07/28 01:01:00;;;;;;;1.80;1.50;;;16.00;99.90;;;;;;5029262;28;20208;-69
2022/07/28 01:03:28;;;;;;;3.60;1.70;;;16.00;99.90;;;;;;5029086;28;20215;-69
2022/07/28 01:06:05;;;;;;;4.93;1.53;;;15.90;99.90;;;;;;5029330;28;20212;-69
2022/07/28 01:08:43;;;;;;;1.90;1.40;;;15.90;99.90;;;;;;5029733;28;20196;-69
2022/07/28 01:11:18;;;;;;;3.87;1.90;;;15.80;99.90;;;;;;5029373;28;20201;-69
2022/07/28 01:13:54;;;;;;;2.90;1.50;;;15.80;99.90;;;;;;5014551;28;20197;-69
2022/07/28 01:16:22;;;;;;;4.67;1.63;;;15.90;99.90;;;;;;5009881;28;20241;-69
2022/07/28 01:18:55;;;;;;;3.73;1.80;;;15.80;99.90;;;;;;5009931;28;20316;-68
2022/07/28 01:21:26;;;;;;;4.03;1.93;;;15.80;99.90;;;;;;5009359;28;20575;-68
2022/07/28 01:24:09;;;;;;;2.07;1.70;;;15.80;99.90;;;;;;5014836;28;20686;-68
2022/07/28 01:26:51;;;;;;;4.80;1.80;;;15.70;99.90;;;;;;5009155;28;20277;-69
2022/07/28 01:29:31;;;;;;;3.53;1.60;;;15.70;99.90;;;;;;5009235;28;20202;-69
2022/07/28 01:32:04;;;;;;;3.37;1.70;;;15.70;99.90;;;;;;5009053;28;20251;-69
2022/07/28 01:34:36;;;;;;;3.13;1.60;;;15.60;99.90;;;;;;5028898;28;20563;-69
2022/07/28 01:37:07;;;;;;;2.03;1.53;;;15.60;99.90;;;;;;5028848;28;20193;-69
2022/07/28 01:39:35;;;;;;;5.90;1.50;;;15.50;99.90;;;;;;5028699;28;20679;-69
2022/07/28 01:42:06;;;;;;;4.80;1.70;;;15.50;99.90;;;;;;5027887;28;20205;-69
2022/07/28 01:44:38;;;;;;;2.40;1.70;;;15.40;99.90;;;;;;5008930;28;20193;-69
2022/07/28 01:47:08;;;;;;;2.97;1.50;;;15.40;99.90;;;;;;5007833;28;20198;-69
2022/07/28 01:49:35;;;;;;;4.33;2.00;;;15.40;99.90;;;;;;5008949;28;20722;-70
2022/07/28 01:52:05;;;;;;;3.20;1.73;;;15.30;99.90;;;;;;5008337;28;20205;-69
2022/07/28 01:54:34;;;;;;;1.93;1.83;;;15.30;99.90;;;;;;5024055;28;20222;-69
2022/07/28 01:57:02;;;;;;;3.00;1.73;;;15.20;99.90;;;;;;5027650;28;20623;-71
2022/07/28 01:59:30;;;;;;;2.90;1.67;;;15.20;99.90;;;;;;5028442;28;20209;-69
2022/07/28 02:01:58;;;;;;;7.90;1.93;;;15.20;99.90;;;;;;5009344;28;20632;-69
2022/07/28 02:04:27;;;;;;;3.53;1.87;;;15.10;99.90;;;;;;5008760;28;20205;-69
2022/07/28 02:06:56;;;;;;;3.03;1.80;;;15.20;99.90;;;;;;5008456;28;20209;-69
2022/07/28 02:09:25;;;;;;;2.60;1.60;;;15.10;99.90;;;;;;5008264;28;20299;-69
2022/07/28 02:11:53;;;;;;;1.57;1.47;;;15.10;99.90;;;;;;5008493;28;20577;-69
2022/07/28 02:14:23;;;;;;;3.97;2.00;;;15.10;99.90;;;;;;5008495;28;20680;-70
2022/07/28 02:16:53;;;;;;;5.40;1.80;;;15.10;99.90;;;;;;5008346;28;20225;-68
2022/07/28 02:19:21;;;;;;;3.47;1.90;;;15.00;99.90;;;;;;5008332;28;20201;-69
2022/07/28 02:21:50;;;;;;;1.80;1.53;;;15.00;99.90;;;;;;5008480;28;20545;-69
2022/07/28 02:24:19;;;;;;;2.33;1.77;;;15.00;99.90;;;;;;5025159;28;20296;-68
2022/07/28 02:26:50;;;;;;;2.43;1.90;;;15.00;99.90;;;;;;5027620;28;20213;-68
2022/07/28 02:29:22;;;;;;;3.47;1.70;;;15.00;99.90;;;;;;5006236;28;20209;-68
2022/07/28 02:31:54;;;;;;;4.13;1.93;;;14.80;99.90;;;;;;5006292;28;20197;-68
2022/07/28 02:34:23;;;;;;;2.53;1.50;;;14.80;99.90;;;;;;5023308;28;20203;-68
2022/07/28 02:36:56;;;;;;;3.73;2.03;;;14.70;99.90;;;;;;5025544;28;20240;-68
2022/07/28 02:39:25;;;;;;;4.10;1.90;;;14.80;99.90;;;;;;5021697;28;20216;-68
2022/07/28 02:41:58;;;;;;;2.97;1.93;;;14.70;99.90;;;;;;5005645;28;20209;-68
2022/07/28 02:44:30;;;;;;;3.07;1.93;;;14.70;99.90;;;;;;5023479;28;20726;-69
2022/07/28 02:46:59;;;;;;;1.70;1.60;;;14.70;99.90;;;;;;5025594;28;20658;-69
2022/07/28 02:49:34;;;;;;;6.60;2.20;;;14.80;99.90;;;;;;5006421;28;20840;-69
2022/07/28 02:52:06;;;;;;;3.53;1.70;;;14.70;99.90;;;;;;5005550;28;20655;-69
2022/07/28 02:54:35;;;;;;;2.57;1.47;;;14.70;99.90;;;;;;5022481;28;20298;-69
2022/07/28 02:57:03;;;;;;;3.23;1.77;;;14.70;99.90;;;;;;5024636;28;20252;-69
2022/07/28 02:59:31;;;;;;;3.37;2.27;;;14.70;99.90;;;;;;5025436;28;20208;-68
2022/07/28 03:01:59;;;;;;;2.83;1.80;;;14.60;99.90;;;;;;5018444;28;20201;-68
2022/07/28 03:07:12;;;;;;;3.07;2.23;;;14.60;99.90;;;;;;5007163;28;20209;-68
2022/07/28 03:09:41;;;;;;;3.87;1.80;;;14.60;99.90;;;;;;5007946;28;20213;-68
2022/07/28 03:12:09;;;;;;;2.27;1.70;;;14.60;99.90;;;;;;5006536;28;20205;-69
2022/07/28 03:14:35;;;;;;;3.80;2.17;;;14.50;99.90;;;;;;5006536;28;20265;-68
2022/07/28 03:17:02;;;;;;;4.37;2.20;;;14.50;99.90;;;;;;5006252;28;20236;-68
2022/07/28 03:19:29;;;;;;;3.50;1.80;;;14.40;99.90;;;;;;5006605;28;20209;-68
2022/07/28 03:21:56;;;;;;;6.90;1.80;;;14.50;99.90;;;;;;5006445;28;20208;-69
2022/07/28 03:24:29;;;;;;;3.30;1.80;;;14.40;99.90;;;;;;5020987;28;20213;-68
2022/07/28 03:27:03;;;;;;;5.13;1.90;;;14.40;99.90;;;;;;5026908;28;20193;-69
2022/07/28 03:29:32;;;;;;;3.73;1.90;;;14.30;99.90;;;;;;5027428;28;20835;-68
2022/07/28 03:32:00;;;;;;;3.27;2.03;;;14.20;99.90;;;;;;5027011;28;20235;-70
2022/07/28 03:34:28;;;;;;;3.17;1.70;;;14.20;99.90;;;;;;5027195;28;20213;-68
2022/07/28 03:37:01;;;;;;;4.40;1.93;;;14.20;99.90;;;;;;5026991;28;20583;-68
2022/07/28 03:39:34;;;;;;;5.27;2.07;;;14.20;99.90;;;;;;5027459;28;20200;-68
2022/07/28 03:42:02;;;;;;;3.33;1.80;;;14.20;99.90;;;;;;5026987;28;20204;-68
2022/07/28 03:44:29;;;;;;;3.00;1.90;;;14.20;99.90;;;;;;5027184;28;20216;-68
2022/07/28 03:46:56;;;;;;;2.90;2.20;;;14.20;99.90;;;;;;5027201;28;20212;-68
2022/07/28 03:49:23;;;;;;;2.23;1.70;;;14.30;99.90;;;;;;5026815;28;20663;-68
2022/07/28 03:51:50;;;;;;;2.87;1.80;;;14.30;99.90;;;;;;5027052;28;20209;-68
2022/07/28 03:54:17;;;;;;;3.23;1.90;;;14.30;99.90;;;;;;5026951;28;20239;-68
2022/07/28 03:56:45;;;;;;;3.50;1.80;;;14.30;99.90;;;;;;5026246;28;20252;-68
2022/07/28 03:59:12;;;;;;;3.83;1.77;;;14.30;99.90;;;;;;5026814;28;20299;-68
2022/07/28 04:01:39;;;;;;;4.17;2.10;;;14.20;99.90;;;;;;5027065;28;20220;-68
2022/07/28 04:04:06;;;;;;;5.23;2.20;;;14.20;99.90;;;;;;5026768;28;20663;-68
2022/07/28 04:06:32;;;;;;;2.13;1.80;;;14.10;99.90;;;;;;5026623;28;20211;-68
2022/07/28 04:08:59;;;;;;;3.50;2.20;;;14.20;99.90;;;;;;5026818;28;20213;-68
2022/07/28 04:11:26;;;;;;;2.97;2.03;;;14.10;99.90;;;;;;5029001;28;20212;-68
2022/07/28 04:13:55;;;;;;;3.93;1.97;;;14.10;99.90;;;;;;5029829;28;20215;-68
2022/07/28 04:16:23;;;;;;;3.63;1.87;;;14.10;99.90;;;;;;5030180;28;20295;-68
2022/07/28 04:18:50;;;;;;;4.17;1.83;;;14.20;99.90;;;;;;5029814;28;20672;-69
2022/07/28 04:21:16;;;;;;;4.37;2.03;;;14.20;99.90;;;;;;5029813;28;20216;-68
2022/07/28 04:23:43;;;;;;;3.20;1.80;;;14.20;99.90;;;;;;5030275;28;20212;-68
2022/07/28 04:26:10;;;;;;;2.07;1.87;;;14.20;99.90;;;;;;5029760;28;20576;-68
2022/07/28 04:28:37;;;;;;;5.70;2.37;;;14.30;99.90;;;;;;5029989;28;20208;-68
2022/07/28 04:31:08;;;;;;;2.87;2.27;;;14.20;99.90;;;;;;5029813;28;20228;-68
2022/07/28 04:33:35;;;;;;;3.83;2.33;;;14.20;99.90;;;;;;5029599;28;20652;-68
2022/07/28 04:36:04;;;;;;;6.37;2.20;;;14.30;99.90;;;;;;5029792;28;20224;-68
2022/07/28 04:38:31;;;;;;;2.07;1.83;;;14.30;99.90;;;;;;5029861;28;20220;-68
2022/07/28 04:40:57;;;;;;;2.00;1.80;;;14.30;99.90;;;;;;5029722;28;20212;-69
2022/07/28 04:43:25;;;;;;;4.20;2.23;;;14.40;99.90;;;;;;5029762;28;20213;-68
2022/07/28 04:45:52;;;;;;;6.90;2.23;;;14.40;99.90;;;;;;5029768;28;20575;-68
2022/07/28 04:48:23;;;;;;;6.50;2.20;;;14.50;99.90;;;;;;5029508;28;20248;-68
2022/07/28 04:50:51;;;;;;;5.40;2.30;;;14.50;99.90;;;;;;5029647;28;20323;-68
2022/07/28 04:53:18;;;;;;;7.20;2.40;;;14.50;99.90;;;;;;5029270;28;20742;-68
2022/07/28 04:55:45;;;;;;;2.77;2.17;;;14.50;99.90;;;;;;5028932;28;20766;-69
2022/07/28 04:58:12;;;;;;;3.87;2.00;;;14.50;99.90;;;;;;5029553;28;20545;-69
2022/07/28 05:00:39;;;;;;;4.23;2.40;;;14.50;99.90;;;;;;5029581;28;20212;-68
2022/07/28 05:03:06;;;;;;;3.70;2.27;;;14.50;99.90;;;;;;5029080;28;20287;-68
2022/07/28 05:05:34;;;;;;;3.87;2.37;;;14.50;99.90;;;;;;5024009;28;20747;-69
2022/07/28 05:08:01;;;;;;;3.47;2.40;;;14.60;99.90;;;;;;5020582;28;20299;-69
2022/07/28 05:10:28;;;;;;;2.90;2.17;;;14.60;99.90;;;;;;5029305;28;20217;-70
2022/07/28 05:12:55;;;;;;;9.20;2.40;;;14.70;99.90;;;;;;5029158;28;20211;-70
2022/07/28 05:15:22;;;;;;;4.93;2.37;;;14.70;99.90;;;;;;5029563;28;20205;-69
2022/07/28 05:17:49;;;;;;;5.27;2.20;;;14.70;99.90;;;;;;5029284;28;20320;-69
2022/07/28 05:20:16;;;;;;;3.87;2.20;;;14.80;99.90;;;;;;5028754;28;20978;-69
2022/07/28 05:22:46;;;;;;;10.20;2.40;;;14.80;99.90;;;;;;5029030;28;20296;-69
2022/07/28 05:25:17;;;;;;;5.90;2.70;;;14.80;99.90;;;;;;5028907;28;20212;-69
2022/07/28 05:27:44;;;;;;;2.47;2.27;;;14.80;99.90;;;;;;5029034;28;20200;-69
2022/07/28 05:30:11;;;;;;;4.50;2.47;;;14.80;99.90;;;;;;5028531;28;20567;-69
2022/07/28 05:32:38;;;;;;;5.37;2.30;;;14.90;99.90;;;;;;5029213;28;20637;-69
2022/07/28 05:35:06;;;;;;;3.27;2.30;;;15.00;99.90;;;;;;5029009;28;20224;-69
2022/07/28 05:37:34;;;;;;;4.23;2.13;;;15.00;99.90;;;;;;5028645;28;20232;-69
2022/07/28 05:40:04;;;;;;;5.40;1.77;;;15.00;99.90;;;;;;5028760;28;20212;-69
2022/07/28 05:42:35;;;;;;;5.27;1.80;;;15.00;99.90;;;;;;5028429;28;20635;-69
2022/07/28 05:45:07;;;;;;;3.03;1.90;;;15.10;99.90;;;;;;5028276;28;20629;-69
2022/07/28 05:47:41;;;;;;;3.97;2.03;;;15.10;99.90;;;;;;5028627;28;20212;-69
2022/07/28 05:50:08;;;;;;;6.53;1.87;;;15.20;99.90;;;;;;5028518;28;20260;-69
2022/07/28 05:52:35;;;;;;;2.60;2.20;;;15.30;99.90;;;;;;5028692;28;20227;-69
2022/07/28 05:55:04;;;;;;;4.10;1.90;;;15.30;99.90;;;;;;5028291;28;20245;-69
2022/07/28 05:57:31;;;;;;;4.87;1.80;;;15.40;99.90;;;;;;5027936;28;20299;-69
2022/07/28 05:59:57;;;;;;;4.43;1.90;;;15.50;99.90;;;;;;5028070;28;20212;-69
2022/07/28 06:02:24;;;;;;;3.03;2.00;;;15.60;99.90;;;;;;5028521;28;20300;-69
2022/07/28 06:04:51;;;;;;;3.77;1.60;;;15.60;99.90;;;;;;5028171;28;20558;-69
2022/07/28 06:07:18;;;;;;;3.13;1.90;;;15.70;99.90;;;;;;5028145;28;20662;-69
2022/07/28 06:09:45;;;;;;;3.30;1.87;;;15.70;99.90;;;;;;5028285;28;20208;-69
2022/07/28 06:12:13;;;;;;;4.50;1.90;;;15.70;99.90;;;;;;5027451;28;20667;-69
2022/07/28 06:14:40;;;;;;;5.80;1.93;;;15.80;99.90;;;;;;5028290;28;20229;-69
2022/07/28 06:17:06;;;;;;;6.00;1.70;;;15.80;99.90;;;;;;5028243;28;20232;-69
2022/07/28 06:19:33;;;;;;;4.03;1.73;;;15.90;99.90;;;;;;5028051;28;20212;-69
2022/07/28 06:22:00;;;;;;;4.47;1.60;;;16.00;99.90;;;;;;5028140;28;20692;-69
2022/07/28 06:24:27;;;;;;;9.33;2.00;;;16.00;99.90;;;;;;5028231;28;20243;-69
2022/07/28 06:26:54;;;;;;;5.93;1.90;;;16.10;99.90;;;;;;5027989;28;20236;-69
2022/07/28 06:29:23;;;;;;;5.73;2.00;;;16.10;99.90;;;;;;5027891;28;20633;-69
2022/07/28 06:31:50;;;;;;;1.40;1.30;;;16.20;99.90;;;;;;5028011;28;20561;-69
2022/07/28 06:34:16;;;;;;;4.73;1.60;;;16.30;99.90;;;;;;5027267;28;20742;-69
2022/07/28 06:36:43;;;;;;;6.03;1.83;;;16.30;99.90;;;;;;5027777;28;20662;-70
2022/07/28 06:39:11;;;;;;;6.20;1.73;;;16.30;99.90;;;;;;5027655;28;20208;-69
2022/07/28 06:41:42;;;;;;;2.10;1.60;;;16.20;99.90;;;;;;5027266;28;20204;-69
2022/07/28 06:44:09;;;;;;;3.50;1.40;;;16.20;99.90;;;;;;5027230;28;20193;-69
2022/07/28 06:46:37;;;;;;;4.97;2.17;;;16.30;99.90;;;;;;5027743;28;20227;-69
2022/07/28 06:49:04;;;;;;;5.03;1.77;;;16.40;99.90;;;;;;5027473;28;20209;-69
2022/07/28 06:51:32;;;;;;;1.60;1.30;;;16.40;99.90;;;;;;5027305;28;20219;-69
2022/07/28 06:53:58;;;;;;;4.27;1.83;;;16.50;99.90;;;;;;5027557;28;20208;-69
2022/07/28 06:56:25;;;;;;;4.97;1.50;;;16.50;99.90;;;;;;5027053;28;20243;-69
2022/07/28 06:58:52;;;;;;;4.00;1.43;;;16.60;99.90;;;;;;5027595;28;20216;-69
2022/07/28 07:01:19;;;;;;;4.20;1.60;;;16.70;99.90;;;;;;5027225;28;20671;-69
2022/07/28 07:03:47;;;;;;;3.40;1.73;;;16.70;99.90;;;;;;5027350;28;20208;-69
2022/07/28 07:06:14;;;;;;;5.43;1.50;;;16.70;99.90;;;;;;5027457;28;20204;-69
2022/07/28 07:08:40;;;;;;;3.23;1.47;;;16.70;99.90;;;;;;5027086;28;20213;-69
2022/07/28 07:11:07;;;;;;;4.37;1.40;;;16.70;99.90;;;;;;5027110;28;20209;-69
2022/07/28 07:13:35;;;;;;;4.13;1.63;;;16.80;99.90;;;;;;5027379;28;20209;-69
2022/07/28 07:16:06;;;;;;;6.63;1.70;;;16.80;99.90;;;;;;5027336;28;20695;-69
2022/07/28 07:18:33;;;;;;;3.67;1.40;;;16.80;99.90;;;;;;5027272;28;20236;-69
2022/07/28 07:21:01;;;;;;;4.93;1.40;;;16.80;99.90;;;;;;5027160;28;20208;-69
2022/07/28 07:23:28;;;;;;;1.77;1.30;;;16.80;99.90;;;;;;5027448;28;20242;-69
2022/07/28 07:25:55;;;;;;;3.43;1.80;;;16.80;99.90;;;;;;5026779;28;20687;-69
2022/07/28 07:28:21;;;;;;;2.70;1.30;;;16.90;99.90;;;;;;5027172;28;20303;-69
2022/07/28 07:30:48;;;;;;;5.17;1.57;;;17.00;99.90;;;;;;5027127;28;20744;-69
2022/07/28 07:33:15;;;;;;;5.27;1.60;;;17.10;99.90;;;;;;5027366;28;20292;-69
2022/07/28 07:35:42;;;;;;;3.17;1.40;;;17.20;99.90;;;;;;5027101;28;20208;-69
2022/07/28 07:38:10;;;;;;;5.47;1.63;;;17.30;99.90;;;;;;5027167;28;20323;-69
2022/07/28 07:40:37;;;;;;;3.07;1.47;;;17.40;99.90;;;;;;5027088;28;20780;-69
2022/07/28 07:43:05;;;;;;;4.00;1.80;;;17.40;99.90;;;;;;5027180;28;20204;-69
2022/07/28 07:45:33;;;;;;;4.37;1.73;;;17.50;99.90;;;;;;5029590;28;20564;-69
2022/07/28 07:48:00;;;;;;;5.03;1.60;;;17.50;99.90;;;;;;5030576;28;20672;-69
2022/07/28 07:50:27;;;;;;;4.00;1.50;;;17.60;99.90;;;;;;5030993;28;20315;-69
2022/07/28 07:52:53;;;;;;;6.67;1.70;;;17.60;99.90;;;;;;5031043;28;20205;-69
2022/07/28 07:55:22;;;;;;;4.63;1.73;;;17.70;99.90;;;;;;5030533;28;20663;-69
2022/07/28 07:57:48;;;;;;;6.40;1.57;;;17.60;99.90;;;;;;5030585;28;20240;-69
2022/07/28 08:00:16;;;;;;;5.03;1.60;;;17.60;99.90;;;;;;5030471;28;20695;-69
2022/07/28 08:02:43;;;;;;;2.10;1.30;;;17.70;99.90;;;;;;5030860;28;20292;-69
2022/07/28 08:05:10;;;;;;;4.13;1.57;;;17.80;99.90;;;;;;5030779;28;20213;-69
2022/07/28 08:07:37;;;;;;;2.77;1.40;;;17.80;99.90;;;;;;5030430;28;20676;-69
2022/07/28 08:10:04;;;;;;;4.33;1.87;;;17.90;99.90;;;;;;5030398;28;20207;-70
2022/07/28 08:12:33;;;;;;;4.27;1.60;;;18.00;99.90;;;;;;5030094;28;20584;-69
2022/07/28 08:15:00;;;;;;;5.30;1.40;;;18.00;99.90;;;;;;5030350;28;20205;-69
2022/07/28 08:17:26;;;;;;;1.53;1.20;;;18.10;99.90;;;;;;5030540;28;20228;-69
2022/07/28 08:19:53;;;;;;;4.30;1.43;;;18.10;99.90;;;;;;5030321;28;20211;-69
2022/07/28 08:22:20;;;;;;;5.57;1.60;;;18.10;99.90;;;;;;5030204;28;20220;-69
2022/07/28 08:24:47;;;;;;;5.10;1.40;;;18.20;99.90;;;;;;5030124;28;20227;-69
2022/07/28 08:27:14;;;;;;;4.33;1.30;;;18.20;99.90;;;;;;5029906;28;20213;-69
2022/07/28 08:29:42;;;;;;;2.47;1.43;;;18.30;99.90;;;;;;5030078;28;20213;-69
2022/07/28 08:32:09;;;;;;;2.27;1.30;;;18.30;99.90;;;;;;5030303;28;20215;-69
2022/07/28 08:34:36;;;;;;;3.53;1.53;;;18.30;99.90;;;;;;5029908;28;20685;-69
2022/07/28 08:37:04;;;;;;;3.53;1.40;;;18.40;99.90;;;;;;5029803;28;20217;-69
2022/07/28 08:39:32;;;;;;;3.83;1.53;;;18.50;99.90;;;;;;5029583;28;20219;-69
2022/07/28 08:42:03;;;;;;;3.80;1.63;;;18.50;99.90;;;;;;5029400;28;20889;-69
2022/07/28 08:44:38;;;;;;;5.17;1.23;;;18.60;99.90;;;;;;5029879;28;20209;-69
2022/07/28 08:47:09;;;;;;;2.80;1.37;;;18.60;99.70;;;;;;5029810;28;20201;-69
2022/07/28 08:49:38;;;;;;;3.73;1.70;;;18.60;99.60;;;;;;5029815;28;20239;-69
2022/07/28 08:52:07;;;;;;;2.07;1.50;;;18.70;99.90;;;;;;5029355;28;20664;-69
2022/07/28 08:54:34;;;;;;;2.13;0.97;;;18.80;99.90;;;;;;5029913;28;20209;-69
2022/07/28 08:57:02;;;;;;;9.87;1.87;;;18.80;99.40;;;;;;5028384;28;20243;-69
2022/07/28 08:59:30;;;;;;;3.63;1.57;;;18.80;99.40;;;;;;5029367;28;20678;-69
2022/07/28 09:01:57;;;;;;;2.67;1.53;;;18.90;99.60;;;;;;5029427;28;20550;-69
2022/07/28 09:04:26;;;;;;;6.20;1.57;;;19.00;99.90;;;;;;5029438;28;20209;-69
2022/07/28 09:06:54;;;;;;;1.80;1.20;;;19.00;99.50;;;;;;5029573;28;20323;-71
2022/07/28 09:09:22;;;;;;;4.73;1.30;;;19.10;99.90;;;;;;5029374;28;20208;-69
2022/07/28 09:11:48;;;;;;;4.50;1.70;;;19.10;98.90;;;;;;5029079;28;20580;-69
2022/07/28 09:14:15;;;;;;;1.50;1.40;;;19.00;99.00;;;;;;5028983;28;20308;-69
2022/07/28 09:16:43;;;;;;;2.20;1.27;;;19.10;98.80;;;;;;5029044;28;20205;-69
2022/07/28 09:19:10;;;;;;;3.40;1.27;;;19.10;99.00;;;;;;5028652;28;20252;-69
2022/07/28 09:21:38;;;;;;;4.67;1.80;;;19.10;98.90;;;;;;5029021;28;20208;-69
2022/07/28 09:24:06;;;;;;;3.17;1.47;;;19.30;98.90;;;;;;5028914;28;20308;-69
2022/07/28 09:26:33;;;;;;;5.33;1.30;;;19.40;98.80;;;;;;5028710;28;20209;-69
2022/07/28 09:29:02;;;;;;;3.60;1.27;;;19.40;98.70;;;;;;5028359;28;20220;-69
2022/07/28 09:31:30;;;;;;;1.97;1.37;;;19.50;98.70;;;;;;5028835;28;20619;-70
2022/07/28 09:34:03;;;;;;;2.33;1.50;;;19.60;98.60;;;;;;5028552;28;20205;-69
2022/07/28 09:36:36;;;;;;;4.33;1.43;;;19.60;98.60;;;;;;5028909;28;20193;-69
2022/07/28 09:39:04;;;;;;;3.03;1.47;;;19.60;98.50;;;;;;5028340;28;20684;-69
2022/07/28 09:41:46;;;;;;;3.80;1.70;;;19.60;98.60;;;;;;5028462;28;20196;-68
2022/07/28 09:44:19;;;;;;;3.87;1.50;;;19.70;98.60;;;;;;5028359;28;20288;-68
2022/07/28 09:46:46;;;;;;;8.63;1.50;;;19.80;98.70;;;;;;5028828;28;20247;-69
2022/07/28 09:49:13;;;;;;;4.97;1.57;;;19.80;98.60;;;;;;5028361;28;20279;-68
2022/07/28 09:51:40;;;;;;;4.20;1.33;;;19.90;98.50;;;;;;5028536;28;20214;-69
2022/07/28 09:54:10;;;;;;;3.10;1.13;;;19.90;98.80;;;;;;5028402;28;20213;-68
2022/07/28 09:56:37;;;;;;;5.30;1.40;;;20.00;98.70;;;;;;5027950;28;20237;-69
2022/07/28 09:59:04;;;;;;;2.57;1.37;;;20.10;99.30;;;;;;5028299;28;20319;-68
2022/07/28 10:01:31;;;;;;;4.27;1.40;;;20.10;98.50;;;;;;5028235;28;20227;-68
2022/07/28 10:04:00;;;;;;;3.37;1.90;;;20.10;97.90;;;;;;5028011;28;20216;-68
2022/07/28 10:06:28;;;;;;;2.07;1.43;;;20.10;98.40;;;;;;5028172;28;20220;-69
2022/07/28 10:08:57;;;;;;;3.03;1.37;;;20.30;98.10;;;;;;5027329;28;20212;-69
2022/07/28 10:11:27;;;;;;;5.23;1.67;;;20.30;98.40;;;;;;5028099;28;20297;-68
2022/07/28 10:13:59;;;;;;;6.20;1.70;;;20.40;98.80;;;;;;5027979;28;20262;-69
2022/07/28 10:16:28;;;;;;;2.10;1.67;;;20.50;98.00;;;;;;5028408;28;20564;-69
2022/07/28 10:18:55;;;;;;;3.17;1.60;;;20.50;98.20;;;;;;5028061;28;20232;-68
2022/07/28 10:21:24;;;;;;;2.97;1.30;;;20.60;98.10;;;;;;5027893;28;20288;-69
2022/07/28 10:23:53;;;;;;;5.78;1.92;;;20.60;98.30;;;;;;5027903;28;20292;-69
2022/07/28 10:26:25;;;;;;;3.40;1.35;;;20.70;97.60;;;;;;5027690;28;20205;-69
2022/07/28 10:28:54;;;;;;;2.33;1.33;;;20.80;97.70;;;;;;5027734;28;20254;-69
2022/07/28 10:31:38;;;;;;;3.27;1.70;;;20.80;97.50;;;;;;5027826;28;20216;-69
2022/07/28 10:34:09;;;;;;;3.88;1.75;;;21.00;97.90;;;;;;5027382;28;20718;-68
2022/07/28 10:36:36;;;;;;;3.72;1.70;;;21.20;97.60;;;;;;5027915;28;20201;-69
2022/07/28 10:39:06;;;;;;;3.63;1.88;;;21.20;97.60;;;;;;5027359;28;20224;-68
2022/07/28 10:41:39;;;;;;;2.87;1.47;;;21.30;96.80;;;;;;5027281;28;20192;-69
2022/07/28 10:44:12;;;;;;;2.65;1.63;;;21.40;97.00;;;;;;5027305;28;20193;-68
2022/07/28 10:46:40;;;;;;;8.20;1.60;;;21.40;96.90;;;;;;5027741;28;20543;-69
2022/07/28 10:49:08;;;;;;;4.38;1.48;;;21.40;96.10;;;;;;5026973;28;20706;-69
2022/07/28 10:51:36;;;;;;;3.58;1.38;;;21.50;96.50;;;;;;5027722;28;20209;-69
2022/07/28 10:54:08;;;;;;;1.90;1.30;;;21.50;96.20;;;;;;5026820;28;20763;-69
2022/07/28 10:56:46;;;;;;;4.68;1.67;;;21.50;96.50;;;;;;5026458;28;20729;-69
2022/07/28 10:59:48;;;;;;;11.45;1.67;;;21.60;95.80;;;;;;5026807;28;20212;-69
2022/07/28 11:02:43;;;;;;;3.30;1.30;;;21.50;95.30;;;;;;5027324;28;20196;-69
2022/07/28 11:05:25;;;;;;;4.22;1.63;;;21.50;95.10;;;;;;4980873;28;20212;-69
2022/07/28 11:07:52;;;;;;;5.93;1.75;;;21.60;95.70;;;;;;5027569;28;20201;-69
2022/07/28 11:10:20;;;;;;;3.50;1.50;;;21.90;95.80;;;;;;5026689;28;20739;-69
2022/07/28 11:12:48;;;;;;;3.35;1.52;;;22.20;95.50;;;;;;5027514;28;20386;-69
2022/07/28 11:15:34;;;;;;;1.90;1.50;;;22.40;94.50;;;;;;5027267;28;20258;-69
2022/07/28 11:18:06;;;;;;;3.50;1.30;;;22.50;94.70;;;;;;5026904;28;20256;-69
2022/07/28 11:21:06;;;;;;;3.35;1.55;;;22.60;94.70;;;;;;5029591;28;20844;-69
2022/07/28 11:23:46;;;;;;;6.60;1.92;;;22.60;93.90;;;;;;5027767;28;20212;-69
2022/07/28 11:26:40;;;;;;;3.10;1.48;;;22.70;94.10;;;;;;5030803;28;20196;-69
2022/07/28 11:29:17;;;;;;;2.10;1.40;;;22.70;93.70;;;;;;5030741;28;20599;-69
2022/07/28 11:32:02;;;;;;;3.33;1.30;;;22.50;93.80;;;;;;5030518;28;20201;-69
2022/07/28 11:35:08;;;;;;;2.17;1.10;;;22.40;93.80;;;;;;5031054;28;20219;-69
2022/07/28 11:38:09;;;;;;;4.93;1.40;;;22.30;94.30;;;;;;5031207;28;20216;-69
2022/07/28 11:40:40;;;;;;;6.35;1.60;;;22.40;94.10;;;;;;5030761;28;20197;-69
2022/07/28 11:43:30;;;;;;;2.17;1.30;;;22.50;94.00;;;;;;5030812;28;20189;-69
2022/07/28 11:46:24;;;;;;;2.45;1.40;;;22.50;93.90;;;;;;5030554;28;20255;-69
2022/07/28 11:49:19;;;;;;;2.60;1.25;;;22.40;93.00;;;;;;5030745;28;20227;-69
2022/07/28 11:52:09;;;;;;;1.42;1.20;;;22.30;93.10;;;;;;5030956;28;20201;-69
2022/07/28 11:54:36;;;;;;;3.70;1.80;;;22.20;93.90;;;;;;5030478;28;20209;-69
2022/07/28 11:57:04;;;;;;;2.85;1.52;;;22.00;94.50;;;;;;5029907;28;20259;-69
2022/07/28 11:59:41;;;;;;;4.50;1.10;;;22.00;94.40;;;;;;5030553;28;20331;-68
2022/07/28 12:02:08;;;;;;;2.50;1.35;;;22.30;93.50;;;;;;5030602;28;20199;-69
2022/07/28 12:04:36;;;;;;;4.60;1.75;;;22.60;92.80;;;;;;5030595;28;20231;-69
2022/07/28 12:07:03;;;;;;;7.03;1.38;;;22.80;92.80;;;;;;5030064;28;20214;-69
2022/07/28 12:09:31;;;;;;;6.05;1.33;;;22.80;92.20;;;;;;5030486;28;20418;-69
2022/07/28 12:11:58;;;;;;;2.97;1.40;;;22.90;92.20;;;;;;5029961;28;20224;-69
2022/07/28 12:14:27;;;;;;;3.13;1.23;;;22.90;92.50;;;;;;5030532;28;20205;-69
2022/07/28 12:16:54;;;;;;;1.80;1.40;;;23.10;93.20;;;;;;5030445;28;20553;-69
2022/07/28 12:19:22;;;;;;;1.92;1.48;;;23.40;92.80;;;;;;5029935;28;20790;-69
2022/07/28 12:21:52;;;;;;;4.07;1.45;;;23.50;91.90;;;;;;5030109;28;20694;-69
2022/07/28 12:24:20;;;;;;;4.85;1.40;;;23.50;92.20;;;;;;5030412;28;20303;-69
2022/07/28 12:26:47;;;;;;;2.85;1.70;;;23.50;92.60;;;;;;5030221;28;20574;-69
2022/07/28 12:29:14;;;;;;;4.38;1.20;;;23.70;92.10;;;;;;5030092;28;20204;-69
2022/07/28 12:31:53;;;;;;;5.85;1.73;;;23.90;92.00;;;;;;5029024;28;20544;-69
2022/07/28 12:34:21;;;;;;;3.22;1.70;;;24.10;92.00;;;;;;5030078;28;20296;-69
2022/07/28 12:36:50;;;;;;;1.30;1.10;;;24.40;91.90;;;;;;5029995;28;20660;-69
2022/07/28 12:39:18;;;;;;;2.53;1.40;;;24.40;90.80;;;;;;5029669;28;20692;-69
2022/07/28 12:41:45;;;;;;;3.08;1.50;;;24.40;91.00;;;;;;5029788;28;20205;-69
2022/07/28 12:44:12;;;;;;;5.38;1.27;;;24.40;91.60;;;;;;5029414;28;20207;-69
2022/07/28 12:46:44;;;;;;;5.75;1.60;;;24.30;91.70;;;;;;5029950;28;20201;-69
2022/07/28 12:49:21;;;;;;;5.38;1.40;;;24.40;91.60;;;;;;5029507;28;20726;-69
2022/07/28 12:51:47;;;;;;;3.50;1.40;;;24.40;91.00;;;;;;5029977;28;20193;-69
2022/07/28 12:54:16;;;;;;;4.63;1.60;;;24.60;91.00;;;;;;5029757;28;20216;-69
2022/07/28 12:56:47;;;;;;;4.25;1.40;;;24.90;91.00;;;;;;5029684;28;20244;-69
2022/07/28 12:59:15;;;;;;;2.80;1.27;;;25.00;91.10;;;;;;5029387;28;20331;-69
2022/07/28 13:01:49;;;;;;;3.88;1.30;;;25.00;89.70;;;;;;5029311;28;20205;-69
2022/07/28 13:04:17;;;;;;;2.83;1.27;;;24.80;89.90;;;;;;5029562;28;20313;-69